createdAt,value
2022-07-25T00:01:51.651Z,24.40
2022-07-25T00:04:19.236Z,24.40
2022-07-25T00:06:47.107Z,24.30
2022-07-25T00:09:14.999Z,24.30
2022-07-25T00:11:42.281Z,24.30
2022-07-25T00:14:09.803Z,24.30
2022-07-25T00:16:37.286Z,24.30
2022-07-25T00:19:04.496Z,24.30
2022-07-25T00:21:31.735Z,24.30
2022-07-25T00:23:59.382Z,24.30
2022-07-25T00:26:26.456Z,24.30
2022-07-25T00:28:53.646Z,24.30
2022-07-25T00:31:20.901Z,24.30
2022-07-25T00:33:48.007Z,24.30
2022-07-25T00:36:15.220Z,24.30
2022-07-25T00:38:42.315Z,24.30
2022-07-25T00:41:09.694Z,24.30
2022-07-25T00:43:36.876Z,24.30
2022-07-25T00:46:04.588Z,24.30
2022-07-25T00:48:32.176Z,24.30
2022-07-25T00:50:59.904Z,24.20
2022-07-25T00:53:27.256Z,24.20
2022-07-25T00:55:56.350Z,24.20
2022-07-25T00:58:23.590Z,24.20
2022-07-25T01:00:50.882Z,24.20
2022-07-25T01:03:18.582Z,24.20
2022-07-25T01:05:50.216Z,24.20
2022-07-25T01:08:22.535Z,24.20
2022-07-25T01:10:50.342Z,24.20
2022-07-25T01:13:17.575Z,24.20
2022-07-25T01:15:45.131Z,24.20
2022-07-25T01:18:12.291Z,24.20
2022-07-25T01:20:39.435Z,24.10
2022-07-25T01:23:06.630Z,24.10
2022-07-25T01:25:34.196Z,24.10
2022-07-25T01:28:01.371Z,24.00
2022-07-25T01:30:28.526Z,24.00
2022-07-25T01:32:55.686Z,24.00
2022-07-25T01:35:22.925Z,24.00
2022-07-25T01:37:50.122Z,24.00
2022-07-25T01:40:17.840Z,24.00
2022-07-25T01:42:44.982Z,23.90
2022-07-25T01:45:13.623Z,23.90
2022-07-25T01:47:41.565Z,23.90
2022-07-25T01:50:09.885Z,23.90
2022-07-25T01:52:38.041Z,23.90
2022-07-25T01:55:06.281Z,23.90
2022-07-25T01:57:33.553Z,23.90
2022-07-25T02:00:06.010Z,23.80
2022-07-25T02:02:33.152Z,23.80
2022-07-25T02:05:00.385Z,23.80
2022-07-25T02:07:27.705Z,23.80
2022-07-25T02:09:56.909Z,23.80
2022-07-25T02:12:24.235Z,23.80
2022-07-25T02:14:51.682Z,23.80
2022-07-25T02:17:18.885Z,23.80
2022-07-25T02:19:46.409Z,23.80
2022-07-25T02:22:13.573Z,23.80
2022-07-25T02:24:40.775Z,23.80
2022-07-25T02:27:08.782Z,23.80
2022-07-25T02:29:36.411Z,23.80
2022-07-25T02:32:03.770Z,23.80
2022-07-25T02:34:30.991Z,23.80
2022-07-25T02:36:58.167Z,23.80
2022-07-25T02:39:25.599Z,23.70
2022-07-25T02:41:52.765Z,23.70
2022-07-25T02:44:19.900Z,23.70
2022-07-25T02:46:47.053Z,23.70
2022-07-25T02:49:14.333Z,23.70
2022-07-25T02:51:41.532Z,23.60
2022-07-25T02:54:08.714Z,23.60
2022-07-25T02:56:35.893Z,23.60
2022-07-25T02:59:02.972Z,23.60
2022-07-25T03:01:30.458Z,23.60
2022-07-25T03:03:57.792Z,23.50
2022-07-25T03:06:25.135Z,23.50
2022-07-25T03:08:52.257Z,23.50
2022-07-25T03:11:20.460Z,23.40
2022-07-25T03:13:47.555Z,23.40
2022-07-25T03:16:14.779Z,23.40
2022-07-25T03:18:41.919Z,23.40
2022-07-25T03:21:09.126Z,23.40
2022-07-25T03:23:36.299Z,23.40
2022-07-25T03:26:03.995Z,23.40
2022-07-25T03:28:31.153Z,23.30
2022-07-25T03:30:58.396Z,23.20
2022-07-25T03:33:25.725Z,23.20
2022-07-25T03:35:52.908Z,23.20
2022-07-25T03:38:20.097Z,23.10
2022-07-25T03:40:47.330Z,23.10
2022-07-25T03:43:14.555Z,23.10
2022-07-25T03:45:41.999Z,23.10
2022-07-25T03:48:09.163Z,23.00
2022-07-25T03:50:36.371Z,23.10
2022-07-25T03:53:03.480Z,23.00
2022-07-25T03:55:30.841Z,23.00
2022-07-25T03:57:57.936Z,23.00
2022-07-25T04:00:25.100Z,23.00
2022-07-25T04:02:52.202Z,23.10
2022-07-25T04:05:19.375Z,23.10
2022-07-25T04:07:46.515Z,23.10
2022-07-25T04:10:13.636Z,23.10
2022-07-25T04:12:40.940Z,23.00
2022-07-25T04:15:08.756Z,23.00
2022-07-25T04:17:36.010Z,23.10
2022-07-25T04:20:08.068Z,23.10
2022-07-25T04:22:37.448Z,23.20
2022-07-25T04:25:06.390Z,23.20
2022-07-25T04:27:33.600Z,23.20
2022-07-25T04:30:00.834Z,23.20
2022-07-25T04:32:27.874Z,23.10
2022-07-25T04:34:55.715Z,23.10
2022-07-25T04:37:22.854Z,23.10
2022-07-25T04:39:49.980Z,23.20
2022-07-25T04:42:17.235Z,23.20
2022-07-25T04:44:44.389Z,23.30
2022-07-25T04:47:11.522Z,23.40
2022-07-25T04:49:38.658Z,23.40
2022-07-25T04:52:05.989Z,23.50
2022-07-25T04:54:33.809Z,23.50
2022-07-25T04:57:00.964Z,23.60
2022-07-25T04:59:28.036Z,23.60
2022-07-25T05:01:55.116Z,23.70
2022-07-25T05:04:22.218Z,23.70
2022-07-25T05:06:49.328Z,23.70
2022-07-25T05:09:16.407Z,23.70
2022-07-25T05:11:47.900Z,23.80
2022-07-25T05:14:16.877Z,23.80
2022-07-25T05:16:44.103Z,23.80
2022-07-25T05:19:11.692Z,23.80
2022-07-25T05:21:38.837Z,23.90
2022-07-25T05:24:06.680Z,23.90
2022-07-25T05:26:34.372Z,23.90
2022-07-25T05:29:01.468Z,23.90
2022-07-25T05:31:28.585Z,23.90
2022-07-25T05:33:55.802Z,24.00
2022-07-25T05:36:22.887Z,24.00
2022-07-25T05:38:50.062Z,24.00
2022-07-25T05:41:17.113Z,24.00
2022-07-25T05:43:46.559Z,24.10
2022-07-25T05:46:14.901Z,24.10
2022-07-25T05:48:43.176Z,24.10
2022-07-25T05:51:10.478Z,24.20
2022-07-25T05:53:37.579Z,24.20
2022-07-25T05:56:05.521Z,24.30
2022-07-25T05:58:33.230Z,24.30
2022-07-25T06:01:00.300Z,24.30
2022-07-25T06:03:27.544Z,24.40
2022-07-25T06:05:56.883Z,24.40
2022-07-25T06:08:24.229Z,24.40
2022-07-25T06:10:52.146Z,24.40
2022-07-25T06:13:20.876Z,24.50
2022-07-25T06:15:48.140Z,24.50
2022-07-25T06:18:15.347Z,24.60
2022-07-25T06:20:42.530Z,24.60
2022-07-25T06:23:10.245Z,24.70
2022-07-25T06:25:37.384Z,24.70
2022-07-25T06:28:04.735Z,24.80
2022-07-25T06:30:32.010Z,24.80
2022-07-25T06:32:59.229Z,24.80
2022-07-25T06:35:26.349Z,24.90
2022-07-25T06:37:53.458Z,24.90
2022-07-25T06:40:20.637Z,25.00
2022-07-25T06:42:48.303Z,25.00
2022-07-25T06:45:16.789Z,25.00
2022-07-25T06:47:44.724Z,25.10
2022-07-25T06:50:18.868Z,25.10
2022-07-25T06:52:49.179Z,25.10
2022-07-25T06:55:16.735Z,25.20
2022-07-25T06:57:44.262Z,25.20
2022-07-25T07:00:13.189Z,25.30
2022-07-25T07:02:58.708Z,25.30
2022-07-25T07:05:28.469Z,25.40
2022-07-25T07:07:56.626Z,25.40
2022-07-25T07:10:24.704Z,25.50
2022-07-25T07:13:02.493Z,25.50
2022-07-25T07:15:29.734Z,25.50
2022-07-25T07:17:56.814Z,25.60
2022-07-25T07:20:23.971Z,25.60
2022-07-25T07:22:51.796Z,25.70
2022-07-25T07:25:21.185Z,25.70
2022-07-25T07:27:49.060Z,25.80
2022-07-25T07:30:22.166Z,25.80
2022-07-25T07:32:51.756Z,25.90
2022-07-25T07:35:19.481Z,25.90
2022-07-25T07:37:47.675Z,25.90
2022-07-25T07:40:17.926Z,26.00
2022-07-25T07:42:47.487Z,26.00
2022-07-25T07:45:23.476Z,26.10
2022-07-25T07:47:52.910Z,26.20
2022-07-25T07:50:22.910Z,26.20
2022-07-25T07:52:51.109Z,26.30
2022-07-25T07:55:37.023Z,26.30
2022-07-25T07:58:05.024Z,26.40
2022-07-25T08:00:36.158Z,26.40
2022-07-25T08:03:04.633Z,26.50
2022-07-25T08:05:35.351Z,26.50
2022-07-25T08:08:02.870Z,26.60
2022-07-25T08:10:33.255Z,26.60
2022-07-25T08:13:00.952Z,26.70
2022-07-25T08:15:28.569Z,26.70
2022-07-25T08:17:55.986Z,26.80
2022-07-25T08:20:39.103Z,26.80
2022-07-25T08:23:07.851Z,26.90
2022-07-25T08:25:35.857Z,27.00
2022-07-25T08:28:03.746Z,27.00
2022-07-25T08:30:31.025Z,27.10
2022-07-25T08:33:06.385Z,27.10
2022-07-25T08:35:34.930Z,27.20
2022-07-25T08:38:03.095Z,27.30
2022-07-25T08:40:31.684Z,27.40
2022-07-25T08:42:59.325Z,27.40
2022-07-25T08:45:28.845Z,27.40
2022-07-25T08:47:56.561Z,27.50
2022-07-25T08:50:26.541Z,27.50
2022-07-25T08:53:10.348Z,27.60
2022-07-25T08:55:45.297Z,27.60
2022-07-25T08:58:14.414Z,27.70
2022-07-25T09:00:43.410Z,27.80
2022-07-25T09:03:11.677Z,27.90
2022-07-25T09:05:39.557Z,28.00
2022-07-25T09:08:20.059Z,28.10
2022-07-25T09:10:50.238Z,28.10
2022-07-25T09:13:18.910Z,28.30
2022-07-25T09:15:54.127Z,28.40
2022-07-25T09:18:26.398Z,28.50
2022-07-25T09:20:59.614Z,28.60
2022-07-25T09:23:35.744Z,28.70
2022-07-25T09:26:16.620Z,28.80
2022-07-25T09:28:49.076Z,28.90
2022-07-25T09:31:19.455Z,29.00
2022-07-25T09:33:48.739Z,29.20
2022-07-25T09:36:15.951Z,29.20
2022-07-25T09:38:53.364Z,29.30
2022-07-25T09:41:20.950Z,29.40
2022-07-25T09:43:48.283Z,29.60
2022-07-25T09:46:15.506Z,29.80
2022-07-25T09:48:46.408Z,30.00
2022-07-25T09:51:13.752Z,30.20
2022-07-25T09:53:41.229Z,30.40
2022-07-25T09:56:08.920Z,30.70
2022-07-25T09:58:36.152Z,30.90
2022-07-25T10:01:07.044Z,31.10
2022-07-25T10:03:52.169Z,31.40
2022-07-25T10:06:39.336Z,31.60
2022-07-25T10:09:13.449Z,31.90
2022-07-25T10:11:41.318Z,32.20
2022-07-25T10:14:13.335Z,32.60
2022-07-25T10:16:48.721Z,32.90
2022-07-25T10:19:15.951Z,33.10
2022-07-25T10:21:43.076Z,33.30
2022-07-25T10:24:11.380Z,33.40
2022-07-25T10:26:51.396Z,33.60
2022-07-25T10:29:18.650Z,33.70
2022-07-25T10:31:50.937Z,33.90
2022-07-25T10:34:31.737Z,34.10
2022-07-25T10:37:10.869Z,34.20
2022-07-25T10:39:40.012Z,34.40
2022-07-25T10:42:07.788Z,34.50
2022-07-25T10:44:46.697Z,34.60
2022-07-25T10:47:15.963Z,34.70
2022-07-25T10:50:14.544Z,34.70
2022-07-25T10:52:42.796Z,34.80
2022-07-25T10:55:10.004Z,35.00
2022-07-25T10:57:41.720Z,35.00
2022-07-25T11:00:17.760Z,35.10
2022-07-25T11:02:45.107Z,35.20
2022-07-25T11:05:12.262Z,35.40
2022-07-25T11:08:11.185Z,35.50
2022-07-25T11:10:36.866Z,35.60
2022-07-25T11:13:03.969Z,35.70
2022-07-25T11:15:32.286Z,35.80
2022-07-25T11:17:59.398Z,35.90
2022-07-25T11:20:26.538Z,36.00
2022-07-25T11:22:56.206Z,36.10
2022-07-25T11:25:23.796Z,36.10
2022-07-25T11:27:58.345Z,36.10
2022-07-25T11:30:27.821Z,36.00
2022-07-25T11:32:57.759Z,36.00
2022-07-25T11:35:27.534Z,35.80
2022-07-25T11:37:55.222Z,35.60
2022-07-25T11:40:23.697Z,35.50
2022-07-25T11:42:54.310Z,35.40
2022-07-25T11:45:30.393Z,35.30
2022-07-25T11:48:10.029Z,35.20
2022-07-25T11:50:39.278Z,35.20
2022-07-25T11:53:09.307Z,35.30
2022-07-25T11:55:42.714Z,35.40
2022-07-25T11:58:11.588Z,35.50
2022-07-25T12:00:44.290Z,35.60
2022-07-25T12:03:19.177Z,35.70
2022-07-25T12:05:48.436Z,35.80
2022-07-25T12:08:17.758Z,35.70
2022-07-25T12:10:55.052Z,35.70
2022-07-25T12:13:24.840Z,35.60
2022-07-25T12:15:52.547Z,35.60
2022-07-25T12:18:19.750Z,35.70
2022-07-25T12:20:48.262Z,35.90
2022-07-25T12:23:15.505Z,36.00
2022-07-25T12:25:46.113Z,36.20
2022-07-25T12:28:14.391Z,36.30
2022-07-25T12:30:43.673Z,36.40
2022-07-25T12:33:12.031Z,36.50
2022-07-25T12:35:41.883Z,36.50
2022-07-25T12:38:09.100Z,36.60
2022-07-25T12:40:36.287Z,36.60
2022-07-25T12:43:05.043Z,36.70
2022-07-25T12:45:32.162Z,36.80
2022-07-25T12:47:59.394Z,36.80
2022-07-25T12:50:26.573Z,36.80
2022-07-25T12:52:53.924Z,36.90
2022-07-25T12:55:21.361Z,36.90
2022-07-25T12:57:48.903Z,37.00
2022-07-25T13:00:22.557Z,37.00
2022-07-25T13:02:56.151Z,37.10
2022-07-25T13:05:24.587Z,37.10
2022-07-25T13:07:52.215Z,37.20
2022-07-25T13:10:20.736Z,37.20
2022-07-25T13:12:48.659Z,37.30
2022-07-25T13:15:18.353Z,37.30
2022-07-25T13:17:45.494Z,37.40
2022-07-25T13:20:12.696Z,37.50
2022-07-25T13:22:39.834Z,37.50
2022-07-25T13:25:07.409Z,37.50
2022-07-25T13:27:34.658Z,37.50
2022-07-25T13:30:01.801Z,37.50
2022-07-25T13:32:28.881Z,37.40
2022-07-25T13:34:56.183Z,37.30
2022-07-25T13:37:23.828Z,37.20
2022-07-25T13:39:51.472Z,37.30
2022-07-25T13:42:18.719Z,37.30
2022-07-25T13:44:45.838Z,37.30
2022-07-25T13:47:12.918Z,37.30
2022-07-25T13:49:40.873Z,37.30
2022-07-25T13:52:08.229Z,37.40
2022-07-25T13:54:35.563Z,37.40
2022-07-25T13:57:03.642Z,37.40
2022-07-25T13:59:30.778Z,37.40
2022-07-25T14:01:58.103Z,37.40
2022-07-25T14:04:25.730Z,37.30
2022-07-25T14:06:53.029Z,37.30
2022-07-25T14:09:21.699Z,37.10
2022-07-25T14:11:49.315Z,37.10
2022-07-25T14:14:17.202Z,37.10
2022-07-25T14:16:44.705Z,37.10
2022-07-25T14:19:12.951Z,37.10
2022-07-25T14:21:40.063Z,37.20
2022-07-25T14:24:07.689Z,37.20
2022-07-25T14:26:35.993Z,37.30
2022-07-25T14:29:03.706Z,37.30
2022-07-25T14:31:33.101Z,37.30
2022-07-25T14:34:00.917Z,37.30
2022-07-25T14:36:28.088Z,37.30
2022-07-25T14:38:55.272Z,37.30
2022-07-25T14:41:22.416Z,37.30
2022-07-25T14:43:50.062Z,37.20
2022-07-25T14:46:17.337Z,37.20
2022-07-25T14:48:44.806Z,37.10
2022-07-25T14:51:12.246Z,37.10
2022-07-25T14:53:39.428Z,37.00
2022-07-25T14:56:06.897Z,36.90
2022-07-25T14:58:35.427Z,36.80
2022-07-25T15:01:02.786Z,36.70
2022-07-25T15:03:30.144Z,36.60
2022-07-25T15:05:57.600Z,36.50
2022-07-25T15:08:24.754Z,36.30
2022-07-25T15:10:52.004Z,36.20
2022-07-25T15:13:34.447Z,36.10
2022-07-25T15:16:03.706Z,36.00
2022-07-25T15:18:31.774Z,35.90
2022-07-25T15:20:59.243Z,35.80
2022-07-25T15:23:30.223Z,35.80
2022-07-25T15:26:01.708Z,35.70
2022-07-25T15:28:30.538Z,35.60
2022-07-25T15:30:57.778Z,35.60
2022-07-25T15:33:25.751Z,35.50
2022-07-25T15:35:52.914Z,35.40
2022-07-25T15:38:20.073Z,35.30
2022-07-25T15:40:48.174Z,35.20
2022-07-25T15:43:16.005Z,35.10
2022-07-25T15:45:45.977Z,35.00
2022-07-25T15:48:14.889Z,34.90
2022-07-25T15:50:43.961Z,34.90
2022-07-25T15:53:13.173Z,34.80
2022-07-25T15:55:41.917Z,34.70
2022-07-25T15:58:10.300Z,34.60
2022-07-25T16:00:38.758Z,34.50
2022-07-25T16:03:06.512Z,34.50
2022-07-25T16:05:34.185Z,34.40
2022-07-25T16:08:01.928Z,34.30
2022-07-25T16:10:30.410Z,34.30
2022-07-25T16:12:57.664Z,34.20
2022-07-25T16:15:25.332Z,34.20
2022-07-25T16:17:53.945Z,34.20
2022-07-25T16:20:21.068Z,34.10
2022-07-25T16:22:49.246Z,34.10
2022-07-25T16:25:16.573Z,34.00
2022-07-25T16:27:43.961Z,34.00
2022-07-25T16:30:13.137Z,34.00
2022-07-25T16:32:40.289Z,33.90
2022-07-25T16:35:07.738Z,33.90
2022-07-25T16:37:35.400Z,33.80
2022-07-25T16:40:03.304Z,33.80
2022-07-25T16:42:30.663Z,33.70
2022-07-25T16:44:59.592Z,33.70
2022-07-25T16:47:26.781Z,33.60
2022-07-25T16:49:53.854Z,33.60
2022-07-25T16:52:22.946Z,33.50
2022-07-25T16:54:50.605Z,33.50
2022-07-25T16:57:17.757Z,33.40
2022-07-25T16:59:45.917Z,33.30
2022-07-25T17:02:13.251Z,33.30
2022-07-25T17:04:40.669Z,33.20
2022-07-25T17:07:08.057Z,33.20
2022-07-25T17:09:35.189Z,33.10
2022-07-25T17:12:02.335Z,33.10
2022-07-25T17:14:30.355Z,33.10
2022-07-25T17:16:57.729Z,33.10
2022-07-25T17:19:25.273Z,33.00
2022-07-25T17:21:52.499Z,32.90
2022-07-25T17:24:19.701Z,32.80
2022-07-25T17:26:47.054Z,32.80
2022-07-25T17:29:14.454Z,32.70
2022-07-25T17:31:41.698Z,32.70
2022-07-25T17:34:08.964Z,32.60
2022-07-25T17:36:36.853Z,32.50
2022-07-25T17:39:04.196Z,32.40
2022-07-25T17:41:31.431Z,32.30
2022-07-25T17:43:58.575Z,32.20
2022-07-25T17:46:25.822Z,32.20
2022-07-25T17:48:53.625Z,32.10
2022-07-25T17:51:20.841Z,32.00
2022-07-25T17:53:48.038Z,31.90
2022-07-25T17:56:15.258Z,31.80
2022-07-25T17:58:42.687Z,31.80
2022-07-25T18:01:10.700Z,31.70
2022-07-25T18:03:38.268Z,31.60
2022-07-25T18:06:05.453Z,31.60
2022-07-25T18:08:35.328Z,31.60
2022-07-25T18:11:03.765Z,31.60
2022-07-25T18:13:31.050Z,31.60
2022-07-25T18:15:58.172Z,31.50
2022-07-25T18:18:25.491Z,31.50
2022-07-25T18:20:52.822Z,31.50
2022-07-25T18:23:19.914Z,31.40
2022-07-25T18:25:47.157Z,31.40
2022-07-25T18:28:14.242Z,31.30
2022-07-25T18:30:41.388Z,31.20
2022-07-25T18:33:08.537Z,31.10
2022-07-25T18:35:35.737Z,31.10
2022-07-25T18:38:03.479Z,31.00
2022-07-25T18:40:30.625Z,30.90
2022-07-25T18:42:57.871Z,30.80
2022-07-25T18:45:24.947Z,30.80
2022-07-25T18:47:52.083Z,30.70
2022-07-25T18:50:20.483Z,30.60
2022-07-25T18:52:47.789Z,30.60
2022-07-25T18:55:15.018Z,30.50
2022-07-25T18:57:42.231Z,30.50
2022-07-25T19:00:10.943Z,30.50
2022-07-25T19:02:38.259Z,30.50
2022-07-25T19:05:05.824Z,30.40
2022-07-25T19:07:34.505Z,30.40
2022-07-25T19:10:02.324Z,30.30
2022-07-25T19:12:29.630Z,30.30
2022-07-25T19:14:57.049Z,30.30
2022-07-25T19:17:24.290Z,30.30
2022-07-25T19:19:52.510Z,30.20
2022-07-25T19:22:19.889Z,30.20
2022-07-25T19:24:47.070Z,30.20
2022-07-25T19:27:14.129Z,30.10
2022-07-25T19:29:43.141Z,30.10
2022-07-25T19:32:11.166Z,30.00
2022-07-25T19:34:38.723Z,29.90
2022-07-25T19:37:05.944Z,29.80
2022-07-25T19:39:33.134Z,29.70
2022-07-25T19:42:00.338Z,29.70
2022-07-25T19:44:27.525Z,29.60
2022-07-25T19:46:54.649Z,29.60
2022-07-25T19:49:21.798Z,29.60
2022-07-25T19:51:49.004Z,29.50
2022-07-25T19:54:16.048Z,29.50
2022-07-25T19:56:43.253Z,29.50
2022-07-25T19:59:10.828Z,29.50
2022-07-25T20:01:39.546Z,29.50
2022-07-25T20:04:09.271Z,29.50
2022-07-25T20:06:36.718Z,29.50
2022-07-25T20:09:05.067Z,29.40
2022-07-25T20:11:32.511Z,29.40
2022-07-25T20:14:00.778Z,29.30
2022-07-25T20:16:28.028Z,29.30
2022-07-25T20:18:55.271Z,29.30
2022-07-25T20:21:23.013Z,29.30
2022-07-25T20:23:50.318Z,29.20
2022-07-25T20:26:17.493Z,29.10
2022-07-25T20:28:44.631Z,29.00
2022-07-25T20:31:12.138Z,29.00
2022-07-25T20:33:39.408Z,28.90
2022-07-25T20:36:06.679Z,28.90
2022-07-25T20:38:33.917Z,28.80
2022-07-25T20:41:01.305Z,28.80
2022-07-25T20:43:29.024Z,28.80
2022-07-25T20:45:56.678Z,28.70
2022-07-25T20:48:24.351Z,28.70
2022-07-25T20:50:51.725Z,28.70
2022-07-25T20:53:19.900Z,28.70
2022-07-25T20:55:47.185Z,28.70
2022-07-25T20:58:14.429Z,28.60
2022-07-25T21:00:42.265Z,28.60
2022-07-25T21:03:09.604Z,28.60
2022-07-25T21:05:40.634Z,28.60
2022-07-25T21:08:07.971Z,28.60
2022-07-25T21:10:35.294Z,28.60
2022-07-25T21:13:02.337Z,28.60
2022-07-25T21:15:31.437Z,28.60
2022-07-25T21:17:58.879Z,28.60
2022-07-25T21:20:26.065Z,28.60
2022-07-25T21:22:55.546Z,28.60
2022-07-25T21:25:22.691Z,28.50
2022-07-25T21:27:52.330Z,28.50
2022-07-25T21:30:19.667Z,28.50
2022-07-25T21:32:46.860Z,28.50
2022-07-25T21:35:14.000Z,28.50
2022-07-25T21:37:41.934Z,28.50
2022-07-25T21:40:10.718Z,28.50
2022-07-25T21:42:38.003Z,28.50
2022-07-25T21:45:05.789Z,28.50
2022-07-25T21:47:32.936Z,28.40
2022-07-25T21:50:24.245Z,28.40
2022-07-25T21:52:53.427Z,28.30
2022-07-25T21:55:21.502Z,28.30
2022-07-25T21:57:49.681Z,28.30
2022-07-25T22:00:17.579Z,28.30
2022-07-25T22:02:46.411Z,28.20
2022-07-25T22:05:15.219Z,28.10
2022-07-25T22:07:43.820Z,28.10
2022-07-25T22:10:12.591Z,28.20
2022-07-25T22:12:40.186Z,28.20
2022-07-25T22:15:11.956Z,28.20
2022-07-25T22:17:48.442Z,28.20
2022-07-25T22:20:18.242Z,28.20
2022-07-25T22:22:49.116Z,28.20
2022-07-25T22:25:17.108Z,28.20
2022-07-25T22:27:44.364Z,28.20
2022-07-25T22:30:16.434Z,28.10
2022-07-25T22:32:46.885Z,28.10
2022-07-25T22:35:14.640Z,28.10
2022-07-25T22:37:41.708Z,28.10
2022-07-25T22:40:09.160Z,28.10
2022-07-25T22:42:36.670Z,28.10
2022-07-25T22:45:05.385Z,28.10
2022-07-25T22:47:32.530Z,28.10
2022-07-25T22:49:59.611Z,28.10
2022-07-25T22:52:26.705Z,28.00
2022-07-25T22:54:53.786Z,28.00
2022-07-25T22:57:20.785Z,28.00
2022-07-25T22:59:49.745Z,28.00
2022-07-25T23:02:16.997Z,28.00
2022-07-25T23:04:44.201Z,28.00
2022-07-25T23:07:11.321Z,28.00
2022-07-25T23:09:38.460Z,27.90
2022-07-25T23:12:05.745Z,27.90
2022-07-25T23:14:32.865Z,27.90
2022-07-25T23:17:18.038Z,27.90
2022-07-25T23:19:46.988Z,27.90
2022-07-25T23:22:14.796Z,27.90
2022-07-25T23:24:42.030Z,27.90
2022-07-25T23:27:09.890Z,27.90
2022-07-25T23:29:37.341Z,27.90
2022-07-25T23:32:05.315Z,27.90
2022-07-25T23:34:32.680Z,27.90
2022-07-25T23:37:00.307Z,27.80
2022-07-25T23:39:27.580Z,27.70
2022-07-25T23:41:54.852Z,27.50
2022-07-25T23:44:21.999Z,27.40
2022-07-25T23:46:53.300Z,27.20
2022-07-25T23:49:24.025Z,27.00
2022-07-25T23:51:51.269Z,26.80
2022-07-25T23:54:18.567Z,26.60
2022-07-25T23:56:45.985Z,26.50
2022-07-25T23:59:13.289Z,26.30
